createdAt,value
2022-09-13T00:01:52.092Z,71.57
2022-09-13T00:04:24.482Z,71.53
2022-09-13T00:06:56.611Z,71.48
2022-09-13T00:09:28.560Z,72.09
2022-09-13T00:12:00.518Z,72.44
2022-09-13T00:14:32.762Z,71.89
2022-09-13T00:17:04.810Z,71.52
2022-09-13T00:19:37.208Z,71.39
2022-09-13T00:22:09.472Z,71.17
2022-09-13T00:24:41.963Z,71.39
2022-09-13T00:27:14.148Z,71.03
2022-09-13T00:29:46.351Z,70.75
2022-09-13T00:32:18.360Z,70.91
2022-09-13T00:34:50.563Z,71.00
2022-09-13T00:37:23.191Z,70.70
2022-09-13T00:39:55.490Z,70.88
2022-09-13T00:42:29.746Z,70.96
2022-09-13T00:45:03.517Z,70.72
2022-09-13T00:47:50.213Z,70.76
2022-09-13T00:50:26.488Z,70.54
2022-09-13T00:53:03.952Z,70.78
2022-09-13T00:55:40.011Z,70.71
2022-09-13T00:58:18.364Z,70.55
2022-09-13T01:00:51.498Z,70.95
2022-09-13T01:03:26.277Z,70.97
2022-09-13T01:05:59.405Z,71.37
2022-09-13T01:08:33.595Z,71.24
2022-09-13T01:11:08.699Z,71.60
2022-09-13T01:13:42.889Z,70.72
2022-09-13T01:16:15.119Z,70.82
2022-09-13T01:18:47.507Z,71.15
2022-09-13T01:22:03.983Z,70.73
2022-09-13T01:24:58.191Z,70.71
2022-09-13T01:27:39.416Z,71.15
2022-09-13T01:30:18.838Z,71.02
2022-09-13T01:33:13.088Z,70.29
2022-09-13T01:35:57.212Z,70.42
2022-09-13T01:38:47.706Z,70.60
2022-09-13T01:41:34.678Z,71.45
2022-09-13T01:44:15.182Z,71.40
2022-09-13T01:46:54.549Z,71.47
2022-09-13T01:49:37.075Z,70.96
2022-09-13T01:52:16.183Z,70.29
2022-09-13T01:54:55.207Z,70.71
2022-09-13T01:57:33.916Z,70.81
2022-09-13T02:00:10.662Z,70.88
2022-09-13T02:02:50.988Z,70.78
2022-09-13T02:05:29.279Z,70.68
2022-09-13T02:08:05.885Z,70.59
2022-09-13T02:10:43.193Z,70.75
2022-09-13T02:13:21.627Z,70.48
2022-09-13T02:16:01.232Z,70.65
2022-09-13T02:18:37.244Z,70.83
2022-09-13T02:21:13.959Z,70.01
2022-09-13T02:23:52.053Z,70.06
2022-09-13T02:26:26.905Z,70.15
2022-09-13T02:28:59.683Z,70.81
2022-09-13T02:31:36.346Z,71.41
2022-09-13T02:34:13.858Z,70.64
2022-09-13T02:36:49.781Z,70.13
2022-09-13T02:39:25.969Z,69.94
2022-09-13T02:42:03.667Z,70.22
2022-09-13T02:44:38.113Z,70.59
2022-09-13T02:47:25.228Z,70.59
2022-09-13T02:50:09.032Z,70.49
2022-09-13T02:52:50.674Z,70.84
2022-09-13T02:55:29.519Z,71.18
2022-09-13T02:58:08.503Z,71.07
2022-09-13T03:00:40.872Z,70.37
2022-09-13T03:03:16.954Z,70.79
2022-09-13T03:05:49.764Z,70.99
2022-09-13T03:08:23.451Z,70.74
2022-09-13T03:11:01.841Z,70.03
2022-09-13T03:14:02.943Z,69.97
2022-09-13T03:16:57.123Z,70.32
2022-09-13T03:19:49.640Z,70.35
2022-09-13T03:22:45.698Z,70.28
2022-09-13T03:25:28.573Z,70.20
2022-09-13T03:28:11.270Z,69.95
2022-09-13T03:30:49.792Z,69.93
2022-09-13T03:33:30.455Z,69.55
2022-09-13T03:36:13.031Z,69.67
2022-09-13T03:38:54.962Z,69.78
2022-09-13T03:41:33.426Z,69.81
2022-09-13T03:44:11.432Z,69.75
2022-09-13T03:46:46.879Z,70.06
2022-09-13T03:49:20.683Z,69.70
2022-09-13T03:51:53.971Z,69.62
2022-09-13T03:54:28.338Z,69.69
2022-09-13T03:57:16.405Z,69.98
2022-09-13T03:59:51.033Z,69.89
2022-09-13T04:02:25.272Z,70.10
2022-09-13T04:04:57.687Z,68.92
2022-09-13T04:07:30.310Z,68.93
2022-09-13T04:10:02.172Z,68.81
2022-09-13T04:12:34.651Z,68.97
2022-09-13T04:15:08.235Z,68.79
2022-09-13T04:17:40.381Z,68.93
2022-09-13T04:20:12.561Z,69.21
2022-09-13T04:22:45.586Z,69.26
2022-09-13T04:25:18.388Z,69.73
2022-09-13T04:27:50.606Z,69.86
2022-09-13T04:30:23.435Z,69.83
2022-09-13T04:32:58.774Z,69.82
2022-09-13T04:35:31.311Z,70.11
2022-09-13T04:38:03.864Z,69.92
2022-09-13T04:40:37.376Z,69.93
2022-09-13T04:43:11.020Z,70.25
2022-09-13T04:45:44.387Z,70.47
2022-09-13T04:48:17.182Z,70.71
2022-09-13T04:50:50.197Z,71.08
2022-09-13T04:53:22.817Z,71.07
2022-09-13T04:55:55.196Z,71.12
2022-09-13T04:58:27.229Z,71.26
2022-09-13T05:01:03.701Z,71.14
2022-09-13T05:03:37.208Z,70.85
2022-09-13T05:06:11.866Z,70.64
2022-09-13T05:08:44.568Z,70.78
2022-09-13T05:11:16.677Z,70.70
2022-09-13T05:13:54.778Z,70.86
2022-09-13T05:16:28.769Z,70.80
2022-09-13T05:19:01.673Z,70.88
2022-09-13T05:21:34.165Z,71.14
2022-09-13T05:24:06.630Z,71.05
2022-09-13T05:26:39.710Z,71.44
2022-09-13T05:29:11.822Z,71.85
2022-09-13T05:31:45.735Z,72.37
2022-09-13T05:34:19.759Z,72.70
2022-09-13T05:36:54.430Z,73.26
2022-09-13T05:39:33.867Z,73.01
2022-09-13T05:42:16.340Z,73.37
2022-09-13T05:44:48.878Z,73.32
2022-09-13T05:47:21.011Z,73.47
2022-09-13T05:50:09.952Z,73.81
2022-09-13T05:52:42.932Z,75.23
2022-09-13T05:55:17.424Z,76.17
2022-09-13T05:57:50.568Z,77.89
2022-09-13T06:00:22.949Z,78.32
2022-09-13T06:02:55.105Z,78.81
2022-09-13T06:05:31.656Z,79.02
2022-09-13T06:08:04.693Z,78.90
2022-09-13T06:10:36.810Z,79.60
2022-09-13T06:13:08.865Z,80.09
2022-09-13T06:15:43.351Z,80.86
2022-09-13T06:18:14.055Z,81.96
2022-09-13T06:20:46.412Z,82.25
2022-09-13T06:23:18.875Z,82.59
2022-09-13T06:25:51.427Z,82.32
2022-09-13T06:28:23.374Z,81.83
2022-09-13T06:31:00.401Z,82.38
2022-09-13T06:33:33.895Z,81.23
2022-09-13T06:36:08.298Z,80.85
2022-09-13T06:38:39.895Z,81.40
2022-09-13T06:41:13.602Z,81.62
2022-09-13T06:43:45.671Z,81.97
2022-09-13T06:46:24.572Z,80.98
2022-09-13T06:49:00.160Z,79.61
2022-09-13T06:51:32.932Z,78.94
2022-09-13T06:54:05.750Z,78.88
2022-09-13T06:56:39.363Z,79.00
2022-09-13T06:59:12.975Z,79.35
2022-09-13T07:01:46.203Z,79.45
2022-09-13T07:04:21.042Z,78.85
2022-09-13T07:06:51.781Z,78.61
2022-09-13T07:09:24.736Z,78.79
2022-09-13T07:11:58.148Z,77.80
2022-09-13T07:14:31.626Z,77.83
2022-09-13T07:17:04.813Z,77.59
2022-09-13T07:19:37.253Z,77.77
2022-09-13T07:22:09.533Z,77.87
2022-09-13T07:24:41.515Z,78.07
2022-09-13T07:27:15.241Z,77.99
2022-09-13T07:29:47.675Z,77.99
2022-09-13T07:32:20.173Z,78.04
2022-09-13T07:34:52.773Z,77.48
2022-09-13T07:37:25.079Z,78.52
2022-09-13T07:39:57.642Z,78.73
2022-09-13T07:42:29.956Z,78.40
2022-09-13T07:45:02.293Z,78.47
2022-09-13T07:47:36.516Z,76.92
2022-09-13T07:50:09.746Z,77.85
2022-09-13T07:52:42.321Z,76.66
2022-09-13T07:55:14.592Z,76.50
2022-09-13T07:57:46.772Z,76.74
2022-09-13T08:00:19.280Z,77.01
2022-09-13T08:02:51.750Z,76.45
2022-09-13T08:05:23.751Z,75.56
2022-09-13T08:07:56.026Z,74.88
2022-09-13T08:10:28.301Z,74.31
2022-09-13T08:13:00.551Z,73.93
2022-09-13T08:15:32.655Z,74.64
2022-09-13T08:18:06.709Z,74.36
2022-09-13T08:20:40.657Z,73.88
2022-09-13T08:23:14.737Z,73.70
2022-09-13T08:25:46.895Z,72.93
2022-09-13T08:28:26.883Z,72.13
2022-09-13T08:31:06.303Z,73.27
2022-09-13T08:33:44.190Z,72.24
2022-09-13T08:36:20.063Z,72.06
2022-09-13T08:38:54.394Z,71.39
2022-09-13T08:41:49.048Z,71.34
2022-09-13T08:44:27.350Z,70.81
2022-09-13T08:47:15.126Z,70.79
2022-09-13T08:49:51.459Z,71.33
2022-09-13T08:52:34.209Z,71.34
2022-09-13T08:55:22.665Z,71.29
2022-09-13T08:58:02.274Z,71.44
2022-09-13T09:00:38.712Z,70.86
2022-09-13T09:03:30.353Z,71.66
2022-09-13T09:06:02.614Z,72.02
2022-09-13T09:08:40.370Z,71.47
2022-09-13T09:11:20.401Z,70.98
2022-09-13T09:13:57.638Z,71.38
2022-09-13T09:16:38.914Z,71.81
2022-09-13T09:19:21.186Z,71.52
2022-09-13T09:21:54.311Z,71.38
2022-09-13T09:24:27.396Z,71.31
2022-09-13T09:27:15.747Z,71.32
2022-09-13T09:29:50.684Z,71.02
2022-09-13T09:32:29.859Z,70.59
2022-09-13T09:35:18.931Z,70.70
2022-09-13T09:38:07.126Z,71.19
2022-09-13T09:40:40.108Z,71.34
2022-09-13T09:43:21.709Z,71.45
2022-09-13T09:45:57.389Z,71.26
2022-09-13T09:48:36.944Z,71.34
2022-09-13T09:51:13.331Z,71.98
2022-09-13T09:53:50.488Z,72.49
2022-09-13T09:56:30.122Z,71.26
2022-09-13T09:59:03.562Z,71.04
2022-09-13T10:01:40.281Z,70.81
2022-09-13T10:04:22.828Z,71.19
2022-09-13T10:07:24.664Z,71.28
2022-09-13T10:10:06.380Z,71.26
2022-09-13T10:12:41.108Z,71.18
2022-09-13T10:15:20.748Z,71.03
2022-09-13T10:18:39.969Z,71.77
2022-09-13T10:21:11.487Z,70.17
2022-09-13T10:23:43.511Z,69.23
2022-09-13T10:26:19.232Z,69.14
2022-09-13T10:28:57.936Z,69.94
2022-09-13T10:31:35.683Z,68.78
2022-09-13T10:34:14.284Z,68.01
2022-09-13T10:36:55.598Z,67.76
2022-09-13T10:39:30.374Z,67.18
2022-09-13T10:42:05.069Z,66.88
2022-09-13T10:44:42.454Z,66.53
2022-09-13T10:47:21.193Z,66.69
2022-09-13T10:49:55.631Z,66.58
2022-09-13T10:52:31.183Z,66.58
2022-09-13T10:55:31.354Z,66.71
2022-09-13T10:58:20.550Z,66.84
2022-09-13T11:01:42.220Z,66.96
2022-09-13T11:04:46.375Z,67.48
2022-09-13T11:07:42.281Z,67.69
2022-09-13T11:10:20.613Z,68.13
2022-09-13T11:12:59.980Z,68.41
2022-09-13T11:15:48.425Z,68.30
2022-09-13T11:18:55.774Z,67.62
2022-09-13T11:21:40.817Z,68.27
2022-09-13T11:24:40.383Z,68.03
2022-09-13T11:27:24.994Z,67.82
2022-09-13T11:30:10.268Z,67.84
2022-09-13T11:32:58.974Z,67.88
2022-09-13T11:35:48.367Z,68.59
2022-09-13T11:38:35.334Z,68.54
2022-09-13T11:41:20.994Z,67.83
2022-09-13T11:44:13.688Z,68.39
2022-09-13T11:46:53.797Z,68.49
2022-09-13T11:49:39.128Z,68.42
2022-09-13T11:52:24.459Z,68.20
2022-09-13T11:55:05.473Z,68.19
2022-09-13T11:57:42.760Z,68.75
2022-09-13T12:00:23.816Z,68.40
2022-09-13T12:03:04.770Z,68.49
2022-09-13T12:05:42.671Z,68.17
2022-09-13T12:08:19.511Z,67.95
2022-09-13T12:10:55.911Z,68.62
2022-09-13T12:13:31.387Z,69.18
2022-09-13T12:16:07.852Z,69.20
2022-09-13T12:18:43.982Z,69.92
2022-09-13T12:21:19.520Z,68.60
2022-09-13T12:23:57.679Z,69.59
2022-09-13T12:26:36.936Z,68.94
2022-09-13T12:29:15.873Z,68.64
2022-09-13T12:31:49.173Z,67.82
2022-09-13T12:34:26.615Z,68.58
2022-09-13T12:37:22.028Z,69.07
2022-09-13T12:40:18.722Z,68.93
2022-09-13T12:43:27.422Z,69.54
2022-09-13T12:46:16.162Z,70.30
2022-09-13T12:49:18.629Z,70.42
2022-09-13T12:52:05.853Z,70.46
2022-09-13T12:55:45.395Z,69.75
2022-09-13T12:58:35.970Z,68.83
2022-09-13T13:01:15.767Z,68.87
2022-09-13T13:03:54.662Z,68.68
2022-09-13T13:06:35.290Z,68.58
2022-09-13T13:09:28.461Z,68.32
2022-09-13T13:12:02.340Z,67.41
2022-09-13T13:14:53.733Z,67.14
2022-09-13T13:17:48.054Z,67.06
2022-09-13T13:20:47.105Z,66.52
2022-09-13T13:23:28.313Z,66.81
2022-09-13T13:26:10.650Z,65.93
2022-09-13T13:29:15.590Z,65.61
2022-09-13T13:32:05.013Z,65.47
2022-09-13T13:34:44.579Z,65.70
2022-09-13T13:37:45.872Z,65.85
2022-09-13T13:40:29.289Z,66.26
2022-09-13T13:43:35.044Z,66.21
2022-09-13T13:46:30.953Z,66.90
2022-09-13T13:49:33.764Z,66.29
2022-09-13T13:52:36.124Z,66.91
2022-09-13T13:55:49.683Z,67.17
2022-09-13T13:58:43.727Z,66.24
2022-09-13T14:01:19.486Z,66.62
2022-09-13T14:04:18.727Z,66.36
2022-09-13T14:07:06.468Z,66.44
2022-09-13T14:09:58.806Z,67.37
2022-09-13T14:12:42.290Z,67.42
2022-09-13T14:15:40.729Z,67.18
2022-09-13T14:18:40.373Z,67.74
2022-09-13T14:21:23.650Z,68.13
2022-09-13T14:24:16.635Z,68.39
2022-09-13T14:26:50.041Z,68.54
2022-09-13T14:29:25.316Z,68.07
2022-09-13T14:32:04.653Z,68.37
2022-09-13T14:34:39.253Z,68.77
2022-09-13T14:37:18.415Z,68.78
2022-09-13T14:40:00.548Z,68.59
2022-09-13T14:42:43.362Z,68.66
2022-09-13T14:45:18.338Z,68.52
2022-09-13T14:47:58.656Z,68.84
2022-09-13T14:50:34.863Z,68.89
2022-09-13T14:53:13.199Z,68.85
2022-09-13T14:55:51.789Z,69.39
2022-09-13T14:58:27.631Z,69.16
2022-09-13T15:01:04.601Z,69.32
2022-09-13T15:03:37.541Z,69.76
2022-09-13T15:06:21.321Z,70.68
2022-09-13T15:08:55.057Z,71.34
2022-09-13T15:11:35.914Z,71.34
2022-09-13T15:14:25.616Z,72.37
2022-09-13T15:17:07.409Z,72.76
2022-09-13T15:19:42.022Z,73.50
2022-09-13T15:22:25.342Z,73.10
2022-09-13T15:25:01.882Z,74.01
2022-09-13T15:27:46.349Z,74.17
2022-09-13T15:30:27.693Z,73.65
2022-09-13T15:33:21.346Z,73.66
2022-09-13T15:35:54.964Z,73.74
2022-09-13T15:38:31.726Z,73.72
2022-09-13T15:41:19.381Z,73.80
2022-09-13T15:43:52.128Z,74.04
2022-09-13T15:46:25.266Z,74.74
2022-09-13T15:48:59.848Z,75.69
2022-09-13T15:51:35.542Z,77.06
2022-09-13T15:54:14.691Z,77.90
2022-09-13T15:56:51.475Z,79.21
2022-09-13T15:59:24.489Z,78.30
2022-09-13T16:01:59.307Z,77.52
2022-09-13T16:04:32.780Z,77.86
2022-09-13T16:07:04.855Z,78.38
2022-09-13T16:09:38.895Z,79.18
2022-09-13T16:12:11.415Z,78.48
2022-09-13T16:14:43.544Z,79.23
2022-09-13T16:17:24.594Z,80.17
2022-09-13T16:19:56.847Z,81.19
2022-09-13T16:22:29.137Z,82.16
2022-09-13T16:25:01.135Z,82.68
2022-09-13T16:27:34.159Z,82.62
2022-09-13T16:30:08.145Z,81.99
2022-09-13T16:32:41.499Z,81.12
2022-09-13T16:35:15.992Z,80.92
2022-09-13T16:37:51.533Z,81.25
2022-09-13T16:40:24.157Z,81.63
2022-09-13T16:42:56.165Z,82.38
2022-09-13T16:45:28.219Z,82.40
2022-09-13T16:48:00.475Z,82.99
2022-09-13T16:50:34.953Z,83.16
2022-09-13T16:53:05.868Z,83.45
2022-09-13T16:55:39.053Z,83.99
2022-09-13T16:58:11.028Z,84.67
2022-09-13T17:00:45.436Z,84.73
2022-09-13T17:03:17.702Z,84.74
2022-09-13T17:06:00.217Z,84.87
2022-09-13T17:08:33.286Z,86.32
2022-09-13T17:11:07.985Z,87.09
2022-09-13T17:13:38.564Z,87.59
2022-09-13T17:16:23.937Z,87.04
2022-09-13T17:18:58.114Z,86.66
2022-09-13T17:21:31.466Z,86.54
2022-09-13T17:24:04.210Z,86.40
2022-09-13T17:26:36.666Z,85.92
2022-09-13T17:29:08.742Z,85.80
2022-09-13T17:31:41.244Z,85.63
2022-09-13T17:34:14.262Z,84.71
2022-09-13T17:36:50.508Z,84.65
2022-09-13T17:39:23.854Z,84.90
2022-09-13T17:41:55.820Z,84.89
2022-09-13T17:44:28.617Z,84.82
2022-09-13T17:47:02.200Z,85.04
2022-09-13T17:49:34.860Z,85.68
2022-09-13T17:52:08.178Z,85.57
2022-09-13T17:54:40.285Z,85.33
2022-09-13T17:57:15.667Z,85.14
2022-09-13T17:59:48.129Z,84.89
2022-09-13T18:02:21.748Z,85.54
2022-09-13T18:04:54.069Z,85.33
2022-09-13T18:07:26.712Z,85.36
2022-09-13T18:09:58.900Z,85.40
2022-09-13T18:12:31.272Z,85.82
2022-09-13T18:15:04.190Z,86.14
2022-09-13T18:17:36.181Z,85.13
2022-09-13T18:20:09.499Z,84.72
2022-09-13T18:22:42.236Z,84.95
2022-09-13T18:25:14.205Z,86.00
2022-09-13T18:27:46.221Z,86.67
2022-09-13T18:30:18.717Z,86.32
2022-09-13T18:32:50.722Z,85.67
2022-09-13T18:35:23.032Z,85.24
2022-09-13T18:37:55.410Z,85.10
2022-09-13T18:40:28.111Z,85.20
2022-09-13T18:43:00.282Z,85.29
2022-09-13T18:45:32.318Z,85.62
2022-09-13T18:48:04.521Z,85.14
2022-09-13T18:50:36.723Z,85.11
2022-09-13T18:53:08.807Z,85.01
2022-09-13T18:55:41.013Z,84.46
2022-09-13T18:58:13.687Z,84.26
2022-09-13T19:00:46.559Z,84.51
2022-09-13T19:03:18.768Z,84.10
2022-09-13T19:05:52.625Z,83.92
2022-09-13T19:08:25.024Z,83.57
2022-09-13T19:11:00.886Z,83.38
2022-09-13T19:13:33.266Z,83.29
2022-09-13T19:16:07.630Z,83.15
2022-09-13T19:18:41.674Z,83.04
2022-09-13T19:21:16.569Z,83.16
2022-09-13T19:23:58.905Z,82.94
2022-09-13T19:26:34.699Z,83.14
2022-09-13T19:29:11.718Z,83.31
2022-09-13T19:31:47.675Z,83.41
2022-09-13T19:34:23.021Z,82.90
2022-09-13T19:36:58.374Z,82.64
2022-09-13T19:39:31.391Z,82.25
2022-09-13T19:42:05.502Z,81.93
2022-09-13T19:44:37.585Z,81.52
2022-09-13T19:48:02.020Z,81.47
2022-09-13T19:50:02.566Z,81.80
2022-09-13T19:52:34.755Z,82.07
2022-09-13T19:55:07.871Z,81.65
2022-09-13T19:57:44.826Z,81.40
2022-09-13T20:00:18.372Z,82.27
2022-09-13T20:02:51.896Z,82.16
2022-09-13T20:05:28.048Z,82.59
2022-09-13T20:08:01.093Z,82.85
2022-09-13T20:10:34.041Z,81.77
2022-09-13T20:13:07.434Z,81.53
2022-09-13T20:15:41.308Z,81.02
2022-09-13T20:18:15.655Z,80.89
2022-09-13T20:20:48.835Z,80.56
2022-09-13T20:23:21.230Z,80.75
2022-09-13T20:25:53.444Z,80.23
2022-09-13T20:28:26.209Z,81.05
2022-09-13T20:31:00.329Z,80.40
2022-09-13T20:33:33.227Z,79.93
2022-09-13T20:36:08.431Z,79.84
2022-09-13T20:38:41.794Z,79.59
2022-09-13T20:41:18.665Z,78.84
2022-09-13T20:43:51.530Z,78.16
2022-09-13T20:46:24.582Z,78.32
2022-09-13T20:48:57.102Z,77.74
2022-09-13T20:51:33.945Z,77.13
2022-09-13T20:54:07.262Z,76.92
2022-09-13T20:56:39.228Z,76.69
2022-09-13T20:59:14.793Z,76.56
2022-09-13T21:01:47.350Z,76.86
2022-09-13T21:04:19.889Z,76.53
2022-09-13T21:07:14.304Z,76.16
2022-09-13T21:09:47.029Z,76.28
2022-09-13T21:12:19.811Z,76.84
2022-09-13T21:14:52.265Z,76.77
2022-09-13T21:17:24.732Z,76.65
2022-09-13T21:19:56.738Z,76.51
2022-09-13T21:22:29.317Z,76.66
2022-09-13T21:25:01.353Z,77.41
2022-09-13T21:27:33.721Z,78.60
2022-09-13T21:30:08.413Z,79.01
2022-09-13T21:32:41.047Z,79.62
2022-09-13T21:35:13.461Z,80.33
2022-09-13T21:37:45.453Z,80.22
2022-09-13T21:40:17.907Z,80.97
2022-09-13T21:42:50.229Z,81.21
2022-09-13T21:45:22.434Z,81.59
2022-09-13T21:47:54.416Z,83.11
2022-09-13T21:50:26.668Z,83.92
2022-09-13T21:53:01.839Z,84.52
2022-09-13T21:55:40.046Z,84.22
2022-09-13T21:58:12.525Z,84.34
2022-09-13T22:00:44.467Z,84.40
2022-09-13T22:03:16.385Z,84.20
2022-09-13T22:05:55.774Z,84.04
2022-09-13T22:08:30.243Z,84.14
2022-09-13T22:11:07.916Z,84.00
2022-09-13T22:13:45.466Z,83.73
2022-09-13T22:16:23.351Z,83.26
2022-09-13T22:18:57.935Z,83.79
2022-09-13T22:21:32.226Z,83.71
2022-09-13T22:24:05.958Z,83.84
2022-09-13T22:26:40.636Z,83.51
2022-09-13T22:29:13.195Z,84.13
2022-09-13T22:31:48.240Z,84.03
2022-09-13T22:34:23.030Z,83.82
2022-09-13T22:36:55.915Z,83.68
2022-09-13T22:39:27.940Z,83.74
2022-09-13T22:42:00.938Z,82.93
2022-09-13T22:44:33.393Z,83.40
2022-09-13T22:47:05.537Z,83.28
2022-09-13T22:49:37.461Z,83.84
2022-09-13T22:52:09.393Z,83.98
2022-09-13T22:54:41.451Z,84.18
2022-09-13T22:57:13.368Z,84.37
2022-09-13T22:59:45.461Z,84.63
2022-09-13T23:02:17.485Z,84.42
2022-09-13T23:04:49.475Z,84.77
2022-09-13T23:07:21.873Z,84.61
2022-09-13T23:09:53.823Z,84.83
2022-09-13T23:12:25.955Z,85.03
2022-09-13T23:14:58.078Z,85.31
2022-09-13T23:17:30.106Z,85.03
2022-09-13T23:20:02.232Z,84.74
2022-09-13T23:22:34.407Z,84.92
2022-09-13T23:25:07.316Z,84.29
2022-09-13T23:27:39.767Z,84.36
2022-09-13T23:30:13.226Z,84.95
2022-09-13T23:32:47.700Z,84.96
2022-09-13T23:35:19.804Z,84.83
2022-09-13T23:37:52.166Z,84.78
2022-09-13T23:40:24.222Z,84.56
2022-09-13T23:42:56.425Z,84.89
2022-09-13T23:45:29.247Z,84.74
2022-09-13T23:48:01.363Z,84.71
2022-09-13T23:50:33.555Z,84.63
2022-09-13T23:53:05.676Z,84.68
2022-09-13T23:55:37.643Z,85.23
2022-09-13T23:58:10.533Z,85.22
